Time;durP1;ratioP1;P1;durP2;ratioP2;P2;SDS_P1;SDS_P2;PMS_P1;PMS_P2;Temp;Humidity;BMP_temperature;BMP_pressure;BME280_temperature;BME280_humidity;BME280_pressure;Samples;Min_cycle;Max_cycle;Signal;HPM_P1;HPM_P2
2024/01/11 00:01:10;;;;;;;4.38;3.00;;;8.10;96.70;;;;;;5024315;28;20048;-74
2024/01/11 00:03:39;;;;;;;5.93;3.28;;;8.20;96.70;;;;;;5017670;28;20045;-77
2024/01/11 00:06:12;;;;;;;7.13;3.15;;;8.20;96.70;;;;;;5010502;28;20479;-76
2024/01/11 00:08:43;;;;;;;4.60;3.30;;;8.10;96.70;;;;;;5038475;28;20076;-76
2024/01/11 00:11:14;;;;;;;5.00;3.08;;;8.20;96.70;;;;;;5025728;28;20053;-76
2024/01/11 00:13:45;;;;;;;5.25;3.17;;;8.30;96.70;;;;;;5019944;28;20053;-76
2024/01/11 00:16:16;;;;;;;4.63;3.08;;;8.30;96.70;;;;;;5003601;28;20096;-76
2024/01/11 00:18:45;;;;;;;4.68;3.00;;;8.20;96.70;;;;;;5004212;28;20116;-76
2024/01/11 00:21:16;;;;;;;6.88;3.50;;;8.20;96.70;;;;;;5023944;28;20144;-77
2024/01/11 00:23:44;;;;;;;4.70;3.30;;;8.20;96.70;;;;;;5027554;28;20061;-76
2024/01/11 00:26:13;;;;;;;4.38;3.10;;;8.10;96.70;;;;;;5023326;28;20053;-77
2024/01/11 00:28:41;;;;;;;4.28;3.03;;;8.20;96.70;;;;;;5028238;28;20054;-76
2024/01/11 00:31:10;;;;;;;5.03;3.25;;;8.20;96.70;;;;;;5022683;28;20437;-77
2024/01/11 00:33:39;;;;;;;3.92;2.72;;;8.20;96.70;;;;;;5011661;28;20061;-77
2024/01/11 00:36:08;;;;;;;5.65;3.10;;;8.20;96.70;;;;;;5022485;28;20482;-76
2024/01/11 00:38:39;;;;;;;4.15;2.72;;;8.20;96.70;;;;;;5041451;28;20159;-76
2024/01/11 00:41:07;;;;;;;5.40;2.90;;;8.30;96.70;;;;;;5024323;28;20060;-77
2024/01/11 00:43:36;;;;;;;4.57;2.85;;;8.30;96.70;;;;;;5030990;28;20084;-77
2024/01/11 00:46:05;;;;;;;5.05;3.33;;;8.30;96.70;;;;;;5027254;28;20464;-76
2024/01/11 00:48:33;;;;;;;3.92;2.53;;;8.30;96.70;;;;;;5007872;28;20822;-76
2024/01/11 00:51:04;;;;;;;4.50;2.63;;;8.40;96.70;;;;;;5025553;28;20136;-76
2024/01/11 00:53:33;;;;;;;3.63;2.50;;;8.30;96.70;;;;;;5019214;28;20053;-77
2024/01/11 00:56:04;;;;;;;3.70;2.50;;;8.40;96.70;;;;;;5022274;28;20045;-77
2024/01/11 00:58:33;;;;;;;3.72;2.67;;;8.40;96.70;;;;;;5030482;28;20084;-76
2024/01/11 01:01:01;;;;;;;3.72;2.70;;;8.40;96.70;;;;;;5029595;28;20054;-77
2024/01/11 01:03:31;;;;;;;3.03;2.13;;;8.40;96.70;;;;;;5032635;28;20069;-76
2024/01/11 01:06:01;;;;;;;4.40;2.53;;;8.40;96.70;;;;;;5028501;28;20068;-76
2024/01/11 01:08:31;;;;;;;4.70;2.60;;;8.40;96.70;;;;;;5025204;28;20056;-76
2024/01/11 01:11:01;;;;;;;3.75;2.45;;;8.40;96.70;;;;;;5030677;28;20065;-77
2024/01/11 01:13:31;;;;;;;3.47;2.28;;;8.40;96.70;;;;;;5010858;28;20046;-77
2024/01/11 01:16:00;;;;;;;3.88;2.50;;;8.50;96.70;;;;;;5028742;28;20071;-77
2024/01/11 01:18:28;;;;;;;4.88;2.67;;;8.50;96.70;;;;;;5008261;28;20049;-76
2024/01/11 01:20:57;;;;;;;3.85;2.55;;;8.40;96.70;;;;;;5024164;28;20379;-76
2024/01/11 01:23:27;;;;;;;4.72;3.00;;;8.40;96.70;;;;;;5025705;28;20087;-76
2024/01/11 01:25:56;;;;;;;4.28;2.67;;;8.30;96.70;;;;;;5021275;28;20494;-76
2024/01/11 01:28:25;;;;;;;4.90;2.75;;;8.40;96.70;;;;;;5032717;28;20061;-76
2024/01/11 01:30:55;;;;;;;4.60;2.22;;;8.30;96.70;;;;;;5027863;28;20060;-76
2024/01/11 01:33:24;;;;;;;4.18;2.40;;;8.30;96.70;;;;;;5026011;28;20064;-77
2024/01/11 01:35:55;;;;;;;4.18;2.35;;;8.30;96.70;;;;;;5033661;28;20072;-77
2024/01/11 01:38:24;;;;;;;3.97;2.47;;;8.30;96.70;;;;;;5020979;28;20053;-76
2024/01/11 01:40:52;;;;;;;5.05;2.40;;;8.30;96.70;;;;;;5029384;28;20053;-77
2024/01/11 01:43:21;;;;;;;4.00;2.50;;;8.30;96.70;;;;;;5048686;28;20060;-77
2024/01/11 01:45:50;;;;;;;3.72;2.55;;;8.20;96.70;;;;;;5048533;28;20059;-76
2024/01/11 01:48:21;;;;;;;4.88;2.38;;;8.20;96.70;;;;;;5047260;28;20049;-77
2024/01/11 01:50:50;;;;;;;3.60;2.17;;;8.20;96.70;;;;;;5044839;28;20053;-76
2024/01/11 01:53:21;;;;;;;3.42;2.50;;;8.20;96.70;;;;;;5035874;28;20056;-77
2024/01/11 01:55:53;;;;;;;3.13;2.15;;;8.20;96.70;;;;;;5052256;28;20057;-76
2024/01/11 01:58:23;;;;;;;3.40;2.33;;;8.20;96.70;;;;;;5051293;28;20045;-76
2024/01/11 02:00:53;;;;;;;2.50;1.98;;;8.20;96.70;;;;;;5032420;28;20110;-76
2024/01/11 02:03:26;;;;;;;3.60;2.25;;;8.20;96.70;;;;;;5048921;28;20057;-76
2024/01/11 02:05:56;;;;;;;2.80;1.95;;;8.20;96.70;;;;;;5039863;28;20064;-78
2024/01/11 02:08:27;;;;;;;3.50;2.33;;;8.20;96.70;;;;;;5031076;28;20049;-77
2024/01/11 02:10:56;;;;;;;3.85;2.20;;;8.10;96.70;;;;;;5027931;28;20076;-77
2024/01/11 02:13:25;;;;;;;3.75;2.42;;;8.10;96.70;;;;;;5046689;28;20049;-76
2024/01/11 02:15:53;;;;;;;3.00;2.35;;;8.10;96.70;;;;;;5048278;28;20049;-76
2024/01/11 02:18:23;;;;;;;4.07;2.40;;;8.10;96.70;;;;;;5052053;28;20057;-76
2024/01/11 02:20:52;;;;;;;3.28;2.28;;;8.10;96.70;;;;;;5048377;28;20685;-77
2024/01/11 02:23:24;;;;;;;3.70;2.50;;;8.00;96.70;;;;;;5047883;28;20088;-77
2024/01/11 02:25:54;;;;;;;3.67;2.25;;;8.00;96.70;;;;;;5047498;28;20049;-77
2024/01/11 02:28:23;;;;;;;3.38;1.95;;;7.90;96.70;;;;;;5047528;28;20131;-77
2024/01/11 02:30:52;;;;;;;3.00;2.10;;;8.00;96.70;;;;;;5046053;28;20152;-77
2024/01/11 02:33:20;;;;;;;4.18;2.28;;;8.00;96.70;;;;;;5029319;28;20512;-76
2024/01/11 02:35:50;;;;;;;3.40;2.13;;;8.00;96.70;;;;;;5047536;28;20049;-77
2024/01/11 02:38:19;;;;;;;2.42;1.75;;;7.90;96.70;;;;;;5047612;28;20107;-77
2024/01/11 02:40:49;;;;;;;2.53;1.88;;;7.90;96.70;;;;;;5020158;28;20143;-77
2024/01/11 02:43:19;;;;;;;3.53;2.13;;;7.80;96.70;;;;;;5029441;28;20139;-77
2024/01/11 02:45:49;;;;;;;4.43;2.40;;;7.80;96.70;;;;;;5047273;28;20107;-77
2024/01/11 02:48:19;;;;;;;3.88;2.70;;;7.70;96.70;;;;;;5047346;28;20122;-76
2024/01/11 02:50:48;;;;;;;4.03;2.53;;;7.60;96.70;;;;;;5047421;28;20081;-76
2024/01/11 02:53:17;;;;;;;4.10;2.25;;;7.50;96.70;;;;;;5047382;28;20151;-76
2024/01/11 02:55:48;;;;;;;4.45;2.30;;;7.50;96.70;;;;;;5038496;28;20057;-76
2024/01/11 02:58:16;;;;;;;2.90;1.92;;;7.50;96.70;;;;;;5047274;28;20120;-76
2024/01/11 03:00:47;;;;;;;4.03;2.35;;;7.50;96.70;;;;;;5047549;28;20063;-76
2024/01/11 03:03:15;;;;;;;4.40;2.45;;;7.50;96.70;;;;;;5047885;28;20514;-76
2024/01/11 03:05:44;;;;;;;4.07;2.35;;;7.50;96.70;;;;;;5012894;28;20068;-76
2024/01/11 03:08:13;;;;;;;3.75;2.20;;;7.50;96.70;;;;;;5046968;28;20159;-77
2024/01/11 03:10:42;;;;;;;3.40;2.08;;;7.40;96.70;;;;;;5047523;28;20111;-76
2024/01/11 03:13:11;;;;;;;4.22;2.50;;;7.40;96.70;;;;;;5045802;28;20056;-77
2024/01/11 03:15:40;;;;;;;3.03;2.28;;;7.50;96.70;;;;;;5046435;28;20436;-77
2024/01/11 03:18:11;;;;;;;3.08;2.20;;;7.50;96.70;;;;;;5034020;28;20140;-76
2024/01/11 03:20:40;;;;;;;4.10;2.65;;;7.40;96.70;;;;;;5046580;28;20052;-76
2024/01/11 03:23:09;;;;;;;3.70;2.20;;;7.40;96.70;;;;;;5034313;28;20128;-77
2024/01/11 03:25:37;;;;;;;4.15;2.45;;;7.30;96.70;;;;;;5046486;28;20138;-76
2024/01/11 03:28:06;;;;;;;4.43;2.40;;;7.30;96.70;;;;;;5028936;28;20073;-76
2024/01/11 03:30:35;;;;;;;3.22;2.20;;;7.20;96.70;;;;;;5046776;28;20076;-77
2024/01/11 03:33:05;;;;;;;3.63;2.00;;;7.30;96.70;;;;;;5046081;28;20526;-77
2024/01/11 03:35:39;;;;;;;3.63;2.58;;;7.30;96.70;;;;;;5028564;28;20061;-77
2024/01/11 03:38:08;;;;;;;3.20;2.20;;;7.30;96.70;;;;;;5046434;28;20428;-76
2024/01/11 03:40:38;;;;;;;3.65;2.53;;;7.30;96.70;;;;;;5046491;28;20141;-76
2024/01/11 03:43:08;;;;;;;4.30;2.33;;;7.20;96.70;;;;;;5042702;28;20729;-76
2024/01/11 03:45:36;;;;;;;4.45;2.85;;;7.10;96.70;;;;;;5036227;28;20059;-76
2024/01/11 03:48:06;;;;;;;3.90;2.20;;;7.10;96.70;;;;;;5042240;28;20053;-76
2024/01/11 03:50:37;;;;;;;4.70;2.83;;;7.10;96.70;;;;;;5037606;28;20056;-77
2024/01/11 03:53:06;;;;;;;3.38;2.13;;;7.00;96.70;;;;;;5037779;28;20092;-77
2024/01/11 03:55:35;;;;;;;4.03;2.33;;;7.00;96.70;;;;;;5037228;28;20106;-77
2024/01/11 03:58:03;;;;;;;4.93;2.38;;;6.90;96.70;;;;;;5029239;28;20068;-77
2024/01/11 04:00:33;;;;;;;3.70;2.13;;;6.90;96.70;;;;;;5036849;28;20135;-76
2024/01/11 04:03:02;;;;;;;3.38;2.30;;;7.00;96.70;;;;;;5043820;28;20425;-75
2024/01/11 04:05:30;;;;;;;3.45;2.40;;;7.00;96.70;;;;;;5036760;28;20597;-77
2024/01/11 04:08:05;;;;;;;3.85;2.40;;;7.00;96.70;;;;;;5043319;28;20552;-76
2024/01/11 04:10:34;;;;;;;2.88;2.17;;;6.90;96.70;;;;;;5028702;28;20059;-76
2024/01/11 04:13:06;;;;;;;5.03;3.08;;;6.70;96.70;;;;;;5038607;28;20057;-77
2024/01/11 04:15:38;;;;;;;3.90;2.35;;;6.80;96.70;;;;;;5033188;28;20079;-76
2024/01/11 04:18:08;;;;;;;3.28;2.42;;;6.80;96.70;;;;;;5030137;28;20100;-77
2024/01/11 04:20:37;;;;;;;3.38;2.30;;;6.80;96.70;;;;;;5039316;28;20067;-75
2024/01/11 04:23:12;;;;;;;4.28;2.88;;;6.70;96.70;;;;;;5040400;28;20068;-75
2024/01/11 04:26:26;;;;;;;4.18;2.63;;;6.80;96.70;;;;;;5026626;28;20072;-75
2024/01/11 04:32:34;;;;;;;4.10;2.63;;;6.70;96.70;;;;;;4970486;28;20067;-75
2024/01/11 04:35:21;;;;;;;4.03;2.38;;;6.70;96.70;;;;;;5044832;28;20063;-75
2024/01/11 04:37:50;;;;;;;5.00;3.00;;;6.70;96.70;;;;;;5021809;28;20079;-75
2024/01/11 04:40:21;;;;;;;6.00;3.30;;;6.70;96.70;;;;;;5019519;28;20055;-75
2024/01/11 04:42:52;;;;;;;4.63;2.75;;;6.70;96.70;;;;;;5041543;28;20108;-75
2024/01/11 04:45:21;;;;;;;4.38;2.58;;;6.80;96.70;;;;;;5045325;28;20074;-74
2024/01/11 04:47:53;;;;;;;4.93;3.03;;;6.90;96.70;;;;;;5045377;28;20079;-74
2024/01/11 04:50:23;;;;;;;4.50;2.78;;;6.90;96.70;;;;;;5038327;28;21313;-75
2024/01/11 04:52:56;;;;;;;5.07;3.08;;;6.90;96.70;;;;;;5049610;28;20057;-74
2024/01/11 05:00:32;;;;;;;3.92;2.63;;;6.90;96.70;;;;;;5011215;28;20057;-75
2024/01/11 05:03:04;;;;;;;4.03;2.90;;;6.90;96.70;;;;;;5074973;28;20087;-75
2024/01/11 05:05:47;;;;;;;5.25;3.30;;;6.90;96.70;;;;;;5092082;28;20060;-75
2024/01/11 05:09:43;;;;;;;;;;;;;;;;;;;;;
2024/01/11 05:13:12;;;;;;;4.82;3.08;;;6.90;96.70;;;;;;5022442;28;20140;-74
2024/01/11 05:15:42;;;;;;;4.65;2.88;;;6.90;96.70;;;;;;5039138;28;20067;-74
2024/01/11 05:22:46;;;;;;;3.97;2.67;;;6.80;96.70;;;;;;5041963;28;20051;-75
2024/01/11 05:30:53;;;;;;;6.10;3.70;;;6.70;96.70;;;;;;5087274;27;20178;-74
2024/01/11 05:33:23;;;;;;;8.30;4.90;;;6.70;96.70;;;;;;5082288;28;20056;-74
2024/01/11 05:36:15;;;;;;;7.30;4.43;;;6.70;96.70;;;;;;5051862;28;20056;-74
2024/01/11 05:38:49;;;;;;;6.38;4.07;;;6.70;96.70;;;;;;5087156;28;20068;-74
2024/01/11 05:41:22;;;;;;;5.32;3.60;;;6.70;96.70;;;;;;5084604;28;20200;-74
2024/01/11 05:43:56;;;;;;;5.10;3.35;;;6.70;96.70;;;;;;5072644;28;20063;-74
2024/01/11 05:46:25;;;;;;;6.15;4.10;;;6.60;96.70;;;;;;5094181;28;20062;-76
2024/01/11 05:48:53;;;;;;;4.63;3.28;;;6.60;96.70;;;;;;5080866;28;20130;-76
2024/01/11 05:51:22;;;;;;;7.72;3.05;;;6.50;96.70;;;;;;5072338;28;20059;-74
2024/01/11 05:53:54;;;;;;;5.43;3.30;;;6.60;96.70;;;;;;5096464;28;20095;-74
2024/01/11 05:56:45;;;;;;;;;;;;;;;;;;;;;
2024/01/11 05:59:17;;;;;;;4.97;3.30;;;6.50;96.70;;;;;;5067266;28;20129;-74
2024/01/11 06:01:50;;;;;;;5.65;3.50;;;6.50;96.70;;;;;;5083936;28;20064;-74
2024/01/11 06:04:18;;;;;;;4.28;3.30;;;6.50;96.70;;;;;;5092098;28;20051;-74
2024/01/11 06:06:47;;;;;;;5.50;3.35;;;6.50;96.70;;;;;;5098693;28;20048;-74
2024/01/11 06:09:18;;;;;;;5.97;2.80;;;6.50;96.70;;;;;;5091689;28;20698;-75
2024/01/11 06:11:57;;;;;;;5.88;2.75;;;6.40;96.70;;;;;;5091246;28;20360;-75
2024/01/11 06:14:29;;;;;;;4.80;3.00;;;6.50;96.70;;;;;;5091522;28;20493;-74
2024/01/11 06:17:18;;;;;;;5.18;3.30;;;6.50;96.70;;;;;;5035436;28;20089;-75
2024/01/11 06:20:34;;;;;;;5.38;3.22;;;6.60;96.70;;;;;;5021056;28;20064;-74
2024/01/11 06:23:04;;;;;;;5.13;2.83;;;6.60;96.70;;;;;;5017474;28;20152;-74
2024/01/11 06:25:35;;;;;;;5.68;3.38;;;6.60;96.70;;;;;;5041623;28;20198;-74
2024/01/11 06:28:17;;;;;;;5.47;3.05;;;6.50;96.70;;;;;;5029519;28;20529;-74
2024/01/11 06:30:47;;;;;;;5.65;3.33;;;6.50;96.70;;;;;;5032315;28;20070;-75
2024/01/11 06:33:36;;;;;;;4.38;3.10;;;6.50;96.70;;;;;;5020360;28;20083;-75
2024/01/11 06:36:18;;;;;;;5.70;3.28;;;6.40;96.70;;;;;;5035275;28;20084;-75
2024/01/11 06:46:23;;;;;;;6.00;3.05;;;6.60;96.70;;;;;;4990583;28;20040;-74
2024/01/11 06:48:52;;;;;;;4.82;2.97;;;6.70;96.70;;;;;;5006490;28;20829;-74
2024/01/11 06:51:27;;;;;;;5.40;3.30;;;6.70;96.70;;;;;;5038186;28;20060;-75
2024/01/11 06:54:00;;;;;;;6.95;3.50;;;6.70;96.70;;;;;;5056137;28;20056;-74
2024/01/11 06:56:33;;;;;;;4.68;2.95;;;6.70;96.70;;;;;;5086144;28;20056;-75
2024/01/11 06:59:03;;;;;;;5.40;3.00;;;6.70;96.70;;;;;;5086536;28;20056;-75
2024/01/11 07:09:38;;;;;;;4.78;3.10;;;6.50;96.70;;;;;;5092859;28;20139;-75
2024/01/11 07:12:25;;;;;;;5.32;3.70;;;6.50;96.70;;;;;;5086756;28;20056;-75
2024/01/11 07:19:07;;;;;;;;;;;6.40;96.70;;;;;;5007311;28;20076;-74
2024/01/11 07:29:17;;;;;;;5.88;3.17;;;6.50;96.70;;;;;;4995995;28;20076;-75
2024/01/11 07:32:14;;;;;;;;;;;;;;;;;;;;;
2024/01/11 07:34:46;;;;;;;5.65;3.65;;;6.60;96.70;;;;;;5005876;28;20137;-75
2024/01/11 07:37:15;;;;;;;5.82;3.47;;;6.60;96.70;;;;;;5004332;28;20072;-75
2024/01/11 07:41:03;;;;;;;6.68;3.90;;;6.70;96.70;;;;;;5014009;28;20609;-75
2024/01/11 07:43:36;;;;;;;7.25;3.58;;;6.70;96.70;;;;;;5008348;28;20061;-75
2024/01/11 07:46:22;;;;;;;7.38;3.40;;;6.70;96.70;;;;;;5004233;28;20073;-75
2024/01/11 07:49:06;;;;;;;6.20;3.42;;;6.70;96.70;;;;;;5017855;28;20108;-75
2024/01/11 07:51:35;;;;;;;6.55;3.83;;;6.70;96.70;;;;;;5057911;28;20076;-75
2024/01/11 07:54:05;;;;;;;5.65;3.10;;;6.70;96.70;;;;;;5086691;28;20524;-74
2024/01/11 07:56:34;;;;;;;5.38;3.47;;;6.80;96.70;;;;;;5085534;28;20501;-74
2024/01/11 07:59:04;;;;;;;6.47;3.28;;;6.90;96.70;;;;;;5068183;28;20052;-75
2024/01/11 08:01:35;;;;;;;5.65;3.58;;;6.90;96.70;;;;;;5086383;28;20052;-74
2024/01/11 08:04:05;;;;;;;7.03;3.58;;;7.00;96.70;;;;;;5086836;28;20056;-75
2024/01/11 08:06:33;;;;;;;6.18;3.35;;;7.00;96.70;;;;;;5085989;28;20506;-75
2024/01/11 08:09:04;;;;;;;5.78;3.47;;;7.10;96.70;;;;;;5085534;28;20508;-75
2024/01/11 08:11:41;;;;;;;5.90;3.80;;;7.10;96.70;;;;;;5085656;28;20160;-74
2024/01/11 08:14:30;;;;;;;5.32;3.38;;;7.10;96.70;;;;;;5086723;28;20575;-75
2024/01/11 08:17:03;;;;;;;8.05;4.00;;;7.20;96.70;;;;;;5085315;28;20051;-73
2024/01/11 08:19:35;;;;;;;6.07;3.22;;;7.20;96.70;;;;;;5085728;28;20097;-73
2024/01/11 08:22:24;;;;;;;4.63;3.15;;;7.30;96.70;;;;;;5086042;28;20060;-74
2024/01/11 08:24:56;;;;;;;4.97;3.13;;;7.40;96.70;;;;;;5088640;28;20052;-75
2024/01/11 08:27:29;;;;;;;4.85;2.95;;;7.40;96.70;;;;;;5085097;28;20054;-75
2024/01/11 08:45:06;;;;;;;5.22;2.95;;;7.80;96.70;;;;;;5065944;28;20078;-74
2024/01/11 08:47:38;;;;;;;5.10;3.28;;;8.00;96.70;;;;;;5064652;28;20052;-74
2024/01/11 08:50:08;;;;;;;5.05;3.47;;;8.10;96.70;;;;;;5065439;28;20059;-74
2024/01/11 08:52:39;;;;;;;5.75;3.33;;;8.20;96.70;;;;;;5046964;28;20592;-74
2024/01/11 08:55:09;;;;;;;4.28;3.00;;;8.20;96.70;;;;;;5064802;28;20056;-74
2024/01/11 08:57:37;;;;;;;5.22;3.15;;;8.30;96.70;;;;;;5064477;28;20106;-74
2024/01/11 09:00:09;;;;;;;5.30;3.50;;;8.30;96.70;;;;;;5064887;28;20063;-74
2024/01/11 09:02:42;;;;;;;5.50;3.33;;;8.40;96.70;;;;;;5064876;28;20484;-74
2024/01/11 09:05:11;;;;;;;5.60;3.08;;;8.50;96.70;;;;;;5060815;28;20052;-74
2024/01/11 09:08:06;;;;;;;4.03;2.90;;;8.60;96.70;;;;;;5064898;28;20086;-74
2024/01/11 09:10:36;;;;;;;4.60;2.75;;;8.70;96.70;;;;;;5058866;28;20133;-74
2024/01/11 09:13:34;;;;;;;6.13;3.50;;;8.70;96.70;;;;;;5064801;28;20049;-74
2024/01/11 09:16:16;;;;;;;;;;;;;;;;;;;;;
2024/01/11 09:18:46;;;;;;;5.90;3.30;;;9.00;96.70;;;;;;5065194;28;20065;-74
2024/01/11 09:21:53;;;;;;;3.67;2.53;;;9.00;96.70;;;;;;5056827;28;20147;-74
2024/01/11 09:24:23;;;;;;;6.57;3.30;;;9.10;96.70;;;;;;5046464;28;20110;-74
2024/01/11 09:26:51;;;;;;;6.05;3.35;;;9.30;96.70;;;;;;5064803;28;20110;-74
2024/01/11 09:29:21;;;;;;;3.20;2.35;;;9.40;96.70;;;;;;5062043;28;20051;-74
2024/01/11 09:31:52;;;;;;;3.50;2.10;;;9.40;96.70;;;;;;5046435;28;20056;-73
2024/01/11 09:34:21;;;;;;;4.53;2.05;;;9.50;96.70;;;;;;5064979;28;20168;-74
2024/01/11 09:36:51;;;;;;;3.45;2.00;;;9.60;96.70;;;;;;5013342;28;20472;-73
2024/01/11 09:39:20;;;;;;;4.30;2.28;;;9.60;96.70;;;;;;5065155;28;20123;-74
2024/01/11 09:41:58;;;;;;;2.97;1.90;;;9.60;96.70;;;;;;5064243;28;20044;-74
2024/01/11 09:48:26;;;;;;;2.55;1.60;;;9.80;96.70;;;;;;4998673;28;20072;-74
2024/01/11 09:50:59;;;;;;;2.40;1.73;;;9.90;96.70;;;;;;5002814;28;20057;-74
2024/01/11 09:53:29;;;;;;;2.83;1.80;;;9.90;96.70;;;;;;5061144;28;20060;-74
2024/01/11 09:56:23;;;;;;;3.13;2.00;;;10.00;96.70;;;;;;5068365;28;20048;-74
2024/01/11 09:58:52;;;;;;;2.47;1.70;;;10.00;96.70;;;;;;5067859;28;20378;-74
2024/01/11 10:01:22;;;;;;;2.85;1.88;;;10.10;96.70;;;;;;5049100;28;20068;-74
2024/01/11 10:03:53;;;;;;;3.25;2.15;;;10.20;96.70;;;;;;5068417;28;20059;-74
2024/01/11 10:06:26;;;;;;;2.33;1.70;;;10.30;96.70;;;;;;5049791;28;20151;-74
2024/01/11 10:08:54;;;;;;;4.15;1.90;;;10.30;96.70;;;;;;5067954;28;20052;-74
2024/01/11 10:11:23;;;;;;;2.97;1.98;;;10.30;96.70;;;;;;5048914;28;20048;-74
2024/01/11 10:22:25;;;;;;;4.27;2.00;;;10.60;96.70;;;;;;5065623;28;20067;-73
2024/01/11 10:25:09;;;;;;;3.13;2.00;;;10.70;96.70;;;;;;5067242;28;20052;-74
2024/01/11 10:27:44;;;;;;;3.78;1.98;;;10.80;96.70;;;;;;5064877;28;20088;-74
2024/01/11 10:30:16;;;;;;;3.58;2.22;;;10.90;96.70;;;;;;5054930;28;20053;-74
2024/01/11 10:32:46;;;;;;;2.55;1.85;;;11.00;96.70;;;;;;5063445;28;20060;-74
2024/01/11 10:35:20;;;;;;;4.20;2.08;;;11.00;96.70;;;;;;5049716;28;20545;-74
2024/01/11 10:37:54;;;;;;;3.45;1.70;;;11.10;96.70;;;;;;5038810;28;20502;-74
2024/01/11 10:40:28;;;;;;;3.30;2.20;;;11.00;96.70;;;;;;5044141;28;20403;-73
2024/01/11 10:43:01;;;;;;;2.67;1.80;;;11.00;96.70;;;;;;5062526;28;20087;-73
2024/01/11 10:45:38;;;;;;;3.45;1.67;;;11.00;96.70;;;;;;5048932;28;20136;-73
2024/01/11 10:48:14;;;;;;;4.07;2.03;;;11.00;96.70;;;;;;5049908;28;20513;-73
2024/01/11 10:50:45;;;;;;;2.97;1.70;;;11.00;96.70;;;;;;5057363;28;20078;-74
2024/01/11 10:58:08;;;;;;;;;;;;;;;;;;;;;
2024/01/11 11:00:37;;;;;;;3.15;1.52;;;11.10;96.70;;;;;;5049771;28;20850;-74
2024/01/11 11:03:09;;;;;;;2.55;1.63;;;11.30;96.70;;;;;;5031503;28;20474;-74
2024/01/11 11:05:47;;;;;;;2.55;1.55;;;11.40;96.70;;;;;;5051781;28;20850;-73
2024/01/11 11:08:17;;;;;;;1.67;1.08;;;11.40;96.70;;;;;;5062497;28;20835;-74
2024/01/11 11:10:50;;;;;;;2.40;1.30;;;11.40;96.70;;;;;;5038541;28;20110;-74
2024/01/11 11:14:08;;;;;;;1.77;1.35;;;11.40;96.70;;;;;;5018172;28;20084;-74
2024/01/11 11:16:24;;;;;;;2.28;1.20;;;11.50;96.70;;;;;;5028752;28;20131;-74
2024/01/11 11:18:57;;;;;;;1.50;1.10;;;11.60;96.70;;;;;;5060367;28;20060;-72
2024/01/11 11:21:26;;;;;;;3.22;1.20;;;11.50;96.70;;;;;;5046128;28;20064;-74
2024/01/11 11:23:57;;;;;;;2.30;1.00;;;11.50;96.70;;;;;;5030335;28;20064;-74
2024/01/11 11:26:28;;;;;;;1.63;1.08;;;11.60;96.70;;;;;;5029772;28;20068;-75
2024/01/11 11:29:00;;;;;;;2.45;1.02;;;11.60;96.70;;;;;;5044249;28;20061;-74
2024/01/11 11:31:41;;;;;;;2.33;1.42;;;11.70;96.70;;;;;;5044386;28;20056;-74
2024/01/11 11:34:12;;;;;;;2.60;1.40;;;11.80;96.70;;;;;;5054737;28;20068;-74
2024/01/11 11:36:44;;;;;;;1.88;1.15;;;11.90;96.70;;;;;;5062868;28;20118;-75
2024/01/11 11:39:14;;;;;;;1.92;0.98;;;12.00;96.70;;;;;;5047481;28;20537;-74
2024/01/11 11:41:46;;;;;;;1.67;1.00;;;12.00;96.70;;;;;;5054739;28;20049;-74
2024/01/11 11:44:50;;;;;;;1.63;1.10;;;11.90;96.70;;;;;;5055404;28;20955;-74
2024/01/11 11:47:23;;;;;;;1.42;0.90;;;12.00;96.70;;;;;;5053531;28;20119;-74
2024/01/11 11:50:07;;;;;;;1.70;1.10;;;12.00;96.70;;;;;;5046871;28;20163;-73
2024/01/11 11:52:42;;;;;;;1.75;1.10;;;12.10;96.70;;;;;;5049578;28;20052;-74
2024/01/11 11:55:12;;;;;;;1.55;1.05;;;12.30;96.70;;;;;;5034905;28;20091;-74
2024/01/11 12:00:59;;;;;;;5.22;1.30;;;12.30;96.70;;;;;;5040564;28;20076;-74
2024/01/11 12:03:49;;;;;;;1.52;1.13;;;12.20;96.70;;;;;;5031953;28;20053;-74
2024/01/11 12:06:23;;;;;;;2.22;1.20;;;12.30;96.70;;;;;;5052654;28;20426;-73
2024/01/11 12:08:55;;;;;;;2.80;1.50;;;12.30;96.70;;;;;;5051852;28;20114;-74
2024/01/11 12:11:26;;;;;;;1.58;1.17;;;12.40;96.70;;;;;;5046065;28;20615;-73
2024/01/11 12:14:19;;;;;;;2.72;1.30;;;12.40;96.70;;;;;;5062482;28;20101;-74
2024/01/11 12:17:51;;;;;;;1.80;1.23;;;12.50;96.70;;;;;;5026372;28;20412;-74
2024/01/11 12:20:20;;;;;;;1.92;1.20;;;12.60;96.70;;;;;;5043984;28;20131;-74
2024/01/11 12:22:49;;;;;;;1.80;1.00;;;12.60;96.70;;;;;;5031401;28;20061;-74
2024/01/11 12:25:18;;;;;;;1.48;0.85;;;12.70;96.70;;;;;;5035213;28;20523;-74
2024/01/11 12:27:47;;;;;;;1.17;0.82;;;12.70;96.70;;;;;;5027478;28;20056;-75
2024/01/11 12:30:18;;;;;;;3.00;1.38;;;12.70;96.70;;;;;;5034226;28;20074;-74
2024/01/11 12:32:48;;;;;;;1.98;1.00;;;12.80;96.70;;;;;;5051925;28;20053;-74
2024/01/11 12:35:24;;;;;;;1.42;1.15;;;12.80;96.70;;;;;;5037920;28;20049;-74
2024/01/11 12:37:54;;;;;;;1.15;0.80;;;12.70;96.70;;;;;;5030189;28;20142;-75
2024/01/11 12:40:23;;;;;;;1.48;0.95;;;12.70;96.70;;;;;;5036054;28;20504;-74
2024/01/11 12:42:58;;;;;;;1.15;0.90;;;12.70;96.70;;;;;;5016734;28;20072;-74
2024/01/11 12:45:32;;;;;;;1.92;1.17;;;12.80;96.70;;;;;;5045529;28;20604;-74
2024/01/11 12:48:18;;;;;;;2.92;1.73;;;12.80;96.70;;;;;;5059502;28;20125;-74
2024/01/11 12:50:47;;;;;;;1.58;1.00;;;12.90;96.70;;;;;;5065250;28;20056;-75
2024/01/11 12:53:26;;;;;;;2.15;1.00;;;13.00;96.70;;;;;;5065580;28;20072;-75
2024/01/11 12:56:08;;;;;;;1.95;1.55;;;13.10;96.70;;;;;;5028499;28;20143;-74
2024/01/11 12:58:46;;;;;;;1.50;1.08;;;13.10;96.70;;;;;;5062568;28;20156;-75
2024/01/11 13:01:18;;;;;;;1.23;0.90;;;13.10;96.70;;;;;;5065247;28;20049;-75
2024/01/11 13:03:49;;;;;;;1.85;1.00;;;13.10;96.70;;;;;;5046379;28;20053;-75
2024/01/11 13:06:19;;;;;;;1.63;1.40;;;13.20;96.70;;;;;;5047348;28;20056;-75
2024/01/11 13:09:49;;;;;;;;;;;;;;;;;;;;;
2024/01/11 13:12:55;;;;;;;2.20;1.38;;;13.30;96.70;;;;;;5035515;28;20055;-75
2024/01/11 13:15:36;;;;;;;1.70;1.10;;;13.20;96.70;;;;;;5064100;28;20057;-74
2024/01/11 13:18:06;;;;;;;1.80;1.40;;;13.30;96.70;;;;;;5054750;28;20180;-75
2024/01/11 13:20:37;;;;;;;1.80;1.20;;;13.40;96.70;;;;;;5051140;28;20424;-75
2024/01/11 13:23:37;;;;;;;1.70;1.02;;;13.30;96.70;;;;;;5056398;28;20485;-73
2024/01/11 13:26:08;;;;;;;1.77;1.27;;;13.20;96.70;;;;;;5054946;28;20439;-74
2024/01/11 13:28:37;;;;;;;1.13;0.80;;;13.10;96.70;;;;;;5049931;28;20677;-74
2024/01/11 13:31:09;;;;;;;1.35;1.00;;;13.20;96.70;;;;;;5063940;28;20167;-74
2024/01/11 13:34:03;;;;;;;1.58;0.93;;;13.00;96.70;;;;;;5034568;28;20121;-76
2024/01/11 13:36:34;;;;;;;1.25;0.73;;;12.90;96.70;;;;;;5068452;28;20110;-76
2024/01/11 13:39:03;;;;;;;1.50;1.00;;;12.90;96.70;;;;;;5064276;28;20078;-77
2024/01/11 13:41:32;;;;;;;2.30;1.40;;;12.80;96.70;;;;;;5069559;28;20049;-76
2024/01/11 13:44:01;;;;;;;1.60;1.10;;;12.80;96.70;;;;;;5070621;28;20103;-76
2024/01/11 13:46:30;;;;;;;1.88;1.30;;;12.70;96.70;;;;;;5067620;28;20664;-77
2024/01/11 13:48:59;;;;;;;2.40;1.20;;;12.40;96.70;;;;;;5068473;28;20095;-77
2024/01/11 13:51:28;;;;;;;2.42;1.63;;;12.30;96.70;;;;;;5060616;28;20055;-76
2024/01/11 13:54:03;;;;;;;1.95;1.30;;;12.20;96.70;;;;;;5066689;28;20056;-77
2024/01/11 13:56:31;;;;;;;1.88;1.27;;;12.20;96.70;;;;;;5067839;28;20127;-75
2024/01/11 13:59:01;;;;;;;2.58;1.60;;;12.10;96.70;;;;;;5068193;28;20049;-76
2024/01/11 14:01:30;;;;;;;3.53;1.40;;;12.00;96.70;;;;;;5065616;28;20049;-76
2024/01/11 14:03:58;;;;;;;2.33;1.55;;;11.90;96.70;;;;;;5074848;28;20126;-77
2024/01/11 14:06:27;;;;;;;2.13;1.38;;;11.90;96.70;;;;;;5068228;28;20052;-77
2024/01/11 14:08:56;;;;;;;2.70;1.45;;;11.80;96.70;;;;;;5068217;28;20164;-77
2024/01/11 14:11:26;;;;;;;2.72;1.83;;;11.80;96.70;;;;;;5068173;28;20452;-77
2024/01/11 14:13:57;;;;;;;1.52;1.13;;;11.70;96.70;;;;;;5067418;28;20099;-76
2024/01/11 14:16:26;;;;;;;1.55;1.15;;;11.70;96.70;;;;;;5032702;28;20087;-76
2024/01/11 14:18:56;;;;;;;2.45;1.20;;;11.60;96.70;;;;;;5068124;28;20417;-77
2024/01/11 14:21:25;;;;;;;2.67;1.40;;;11.60;96.70;;;;;;5068288;28;20052;-76
2024/01/11 14:23:53;;;;;;;2.50;1.70;;;11.60;96.70;;;;;;5067804;28;20099;-76
2024/01/11 14:26:22;;;;;;;4.22;2.17;;;11.60;96.70;;;;;;5067686;28;20048;-76
2024/01/11 14:28:54;;;;;;;6.22;3.00;;;11.50;96.70;;;;;;5058916;28;20048;-76
2024/01/11 14:31:23;;;;;;;4.70;2.38;;;11.40;96.70;;;;;;5049741;28;20052;-76
2024/01/11 14:33:51;;;;;;;5.90;3.53;;;11.40;96.70;;;;;;5067960;28;20063;-76
2024/01/11 14:36:21;;;;;;;4.50;2.60;;;11.40;96.70;;;;;;5066778;28;20055;-77
2024/01/11 14:38:50;;;;;;;4.68;2.30;;;11.40;96.70;;;;;;5067354;28;20056;-76
2024/01/11 14:41:19;;;;;;;3.90;2.47;;;11.30;96.70;;;;;;5066565;28;20076;-77
2024/01/11 14:43:47;;;;;;;4.43;2.08;;;11.20;96.70;;;;;;5048531;28;20064;-76
2024/01/11 14:46:17;;;;;;;4.13;2.42;;;11.20;96.70;;;;;;5067297;28;20079;-77
2024/01/11 14:48:46;;;;;;;4.68;2.60;;;11.20;96.70;;;;;;5067738;28;20067;-76
2024/01/11 14:51:15;;;;;;;2.85;1.73;;;11.10;96.70;;;;;;5067276;28;20068;-77
2024/01/11 14:53:44;;;;;;;2.38;1.55;;;11.10;96.70;;;;;;5033009;28;20098;-76
2024/01/11 14:56:14;;;;;;;3.08;2.10;;;11.10;96.70;;;;;;5067320;28;20566;-76